createdAt,value
2016-09-09T00:00:06.948Z,953.57
2016-09-09T00:01:06.954Z,953.6
2016-09-09T00:02:06.940Z,953.62
2016-09-09T00:03:06.937Z,953.62
2016-09-09T00:04:06.935Z,953.57
2016-09-09T00:05:06.931Z,953.62
2016-09-09T00:06:06.926Z,953.62
2016-09-09T00:07:06.926Z,953.6
2016-09-09T00:08:06.919Z,953.6
2016-09-09T00:09:06.915Z,953.58
2016-09-09T00:10:06.916Z,953.61
2016-09-09T00:11:06.907Z,953.61
2016-09-09T00:12:06.902Z,953.64
2016-09-09T00:13:06.901Z,953.65
2016-09-09T00:14:06.895Z,953.65
2016-09-09T00:15:06.893Z,953.63
2016-09-09T00:16:06.890Z,953.67
2016-09-09T00:17:06.882Z,953.64
2016-09-09T00:18:06.879Z,953.63
2016-09-09T00:19:06.880Z,953.62
2016-09-09T00:20:06.875Z,953.62
2016-09-09T00:21:06.871Z,953.62
2016-09-09T00:22:06.865Z,953.66
2016-09-09T00:23:06.862Z,953.67
2016-09-09T00:24:06.856Z,953.65
2016-09-09T00:25:06.856Z,953.67
2016-09-09T00:26:06.855Z,953.68
2016-09-09T00:27:06.847Z,953.7
2016-09-09T00:28:06.846Z,953.73
2016-09-09T00:29:06.842Z,953.7
2016-09-09T00:30:06.835Z,953.68
2016-09-09T00:31:06.829Z,953.68
2016-09-09T00:32:06.825Z,953.7
2016-09-09T00:33:06.824Z,953.72
2016-09-09T00:34:06.820Z,953.74
2016-09-09T00:35:06.814Z,953.72
2016-09-09T00:36:06.814Z,953.7
2016-09-09T00:37:06.811Z,953.68
2016-09-09T00:38:06.805Z,953.69
2016-09-09T00:39:06.803Z,953.67
2016-09-09T00:40:06.795Z,953.66
2016-09-09T00:41:06.793Z,953.68
2016-09-09T00:42:06.788Z,953.63
2016-09-09T00:43:06.785Z,953.66
2016-09-09T00:44:06.780Z,953.63
2016-09-09T00:45:06.777Z,953.62
2016-09-09T00:46:06.773Z,953.63
2016-09-09T00:47:06.769Z,953.66
2016-09-09T00:48:06.775Z,953.64
2016-09-09T00:49:06.762Z,953.64
2016-09-09T00:50:06.757Z,953.66
2016-09-09T00:51:06.754Z,953.67
2016-09-09T00:52:06.750Z,953.7
2016-09-09T00:53:06.744Z,953.72
2016-09-09T00:54:06.741Z,953.72
2016-09-09T00:55:06.738Z,953.75
2016-09-09T00:56:06.731Z,953.74
2016-09-09T00:57:06.729Z,953.75
2016-09-09T00:58:06.729Z,953.72
2016-09-09T00:59:06.721Z,953.73
2016-09-09T01:00:06.717Z,953.71
2016-09-09T01:01:06.711Z,953.71
2016-09-09T01:02:06.709Z,953.74
2016-09-09T01:03:06.703Z,953.77
2016-09-09T01:04:06.706Z,953.8
2016-09-09T01:05:06.696Z,953.77
2016-09-09T01:06:06.693Z,953.75
2016-09-09T01:07:06.688Z,953.79
2016-09-09T01:08:06.684Z,953.8
2016-09-09T01:09:06.683Z,953.84
2016-09-09T01:10:06.678Z,953.8
2016-09-09T01:11:06.673Z,953.82
2016-09-09T01:12:06.668Z,953.83
2016-09-09T01:13:06.665Z,953.86
2016-09-09T01:14:06.660Z,953.86
2016-09-09T01:15:06.655Z,953.89
2016-09-09T01:16:06.655Z,953.92
2016-09-09T01:17:06.647Z,953.89
2016-09-09T01:18:06.643Z,953.92
2016-09-09T01:19:06.638Z,953.93
2016-09-09T01:20:06.636Z,953.89
2016-09-09T01:21:06.632Z,953.87
2016-09-09T01:22:06.628Z,953.87
2016-09-09T01:23:06.623Z,953.89
2016-09-09T01:24:06.619Z,953.91
2016-09-09T01:25:06.616Z,953.88
2016-09-09T01:26:06.611Z,953.85
2016-09-09T01:27:06.605Z,953.9
2016-09-09T01:28:06.602Z,953.86
2016-09-09T01:29:06.595Z,953.82
2016-09-09T01:30:06.593Z,953.86
2016-09-09T01:31:06.591Z,953.8
2016-09-09T01:32:06.587Z,953.85
2016-09-09T01:33:06.578Z,953.83
2016-09-09T01:34:06.577Z,953.79
2016-09-09T01:35:06.578Z,953.82
2016-09-09T01:36:06.570Z,953.8
2016-09-09T01:37:06.563Z,953.83
2016-09-09T01:38:06.559Z,953.81
2016-09-09T01:39:06.552Z,953.82
2016-09-09T01:40:06.552Z,953.85
2016-09-09T01:41:06.545Z,953.86
2016-09-09T01:42:06.542Z,953.88
2016-09-09T01:43:06.538Z,953.86
2016-09-09T01:44:06.536Z,953.86
2016-09-09T01:45:06.529Z,953.87
2016-09-09T01:46:06.527Z,953.9
2016-09-09T01:47:06.518Z,953.91
2016-09-09T01:48:06.516Z,953.92
2016-09-09T01:49:06.513Z,953.96
2016-09-09T01:50:06.506Z,953.94
2016-09-09T01:51:06.499Z,953.96
2016-09-09T01:52:06.498Z,953.96
2016-09-09T01:53:06.492Z,953.97
2016-09-09T01:54:06.485Z,953.97
2016-09-09T01:55:06.484Z,954.03
2016-09-09T01:56:06.478Z,954
2016-09-09T01:57:06.475Z,954.04
2016-09-09T01:58:06.471Z,954.01
2016-09-09T01:59:06.464Z,954.11
2016-09-09T02:00:06.461Z,954.08
2016-09-09T02:01:06.458Z,954.08
2016-09-09T02:02:06.452Z,954.09
2016-09-09T02:03:06.448Z,954.11
2016-09-09T02:04:06.443Z,954.08
2016-09-09T02:05:06.439Z,954.14
2016-09-09T02:06:06.437Z,954.14
2016-09-09T02:07:06.430Z,954.13
2016-09-09T02:08:06.433Z,954.16
2016-09-09T02:09:06.421Z,954.09
2016-09-09T02:10:06.421Z,954.12
2016-09-09T02:11:06.414Z,954.07
2016-09-09T02:12:06.408Z,954.09
2016-09-09T02:13:06.605Z,954.06
2016-09-09T02:14:06.398Z,954.06
2016-09-09T02:15:06.413Z,954.06
2016-09-09T02:16:06.390Z,954.05
2016-09-09T02:17:06.383Z,954.05
2016-09-09T02:18:06.380Z,954.08
2016-09-09T02:19:06.378Z,954.08
2016-09-09T02:20:06.373Z,954.09
2016-09-09T02:21:06.380Z,954.1
2016-09-09T02:22:06.365Z,954.1
2016-09-09T02:23:06.366Z,954.09
2016-09-09T02:24:06.357Z,954.05
2016-09-09T02:25:06.349Z,954.03
2016-09-09T02:26:06.346Z,954.08
2016-09-09T02:27:06.340Z,954.04
2016-09-09T02:28:06.342Z,954.06
2016-09-09T02:29:06.354Z,954.05
2016-09-09T02:30:06.328Z,954.1
2016-09-09T02:31:06.325Z,954.05
2016-09-09T02:32:06.325Z,954.06
2016-09-09T02:33:06.316Z,954.07
2016-09-09T02:34:06.310Z,954.07
2016-09-09T02:35:06.398Z,954.07
2016-09-09T02:36:06.301Z,954.07
2016-09-09T02:37:06.299Z,954.09
2016-09-09T02:38:06.296Z,954.11
2016-09-09T02:39:06.287Z,954.12
2016-09-09T02:40:06.282Z,954.1
2016-09-09T02:41:06.283Z,954.14
2016-09-09T02:42:06.273Z,954.14
2016-09-09T02:43:06.268Z,954.08
2016-09-09T02:44:06.266Z,954.1
2016-09-09T02:45:06.266Z,954.09
2016-09-09T02:46:06.257Z,954.09
2016-09-09T02:47:06.254Z,954.08
2016-09-09T02:48:06.249Z,954.06
2016-09-09T02:49:06.244Z,954.07
2016-09-09T02:50:06.241Z,954.11
2016-09-09T02:51:06.235Z,954.11
2016-09-09T02:52:06.238Z,954.15
2016-09-09T02:53:06.223Z,954.16
2016-09-09T02:54:06.219Z,954.17
2016-09-09T02:55:06.215Z,954.17
2016-09-09T02:56:06.211Z,954.17
2016-09-09T02:57:06.204Z,954.13
2016-09-09T02:58:06.203Z,954.15
2016-09-09T02:59:06.197Z,954.14
2016-09-09T03:00:06.192Z,954.13
2016-09-09T03:01:06.186Z,954.16
2016-09-09T03:02:06.183Z,954.16
2016-09-09T03:03:06.184Z,954.18
2016-09-09T03:04:06.175Z,954.19
2016-09-09T03:05:06.173Z,954.27
2016-09-09T03:06:06.163Z,954.23
2016-09-09T03:07:06.163Z,954.26
2016-09-09T03:08:06.151Z,954.22
2016-09-09T03:09:06.149Z,954.23
2016-09-09T03:10:06.144Z,954.25
2016-09-09T03:11:06.139Z,954.23
2016-09-09T03:12:06.142Z,954.21
2016-09-09T03:13:06.130Z,954.2
2016-09-09T03:14:06.125Z,954.21
2016-09-09T03:15:06.123Z,954.23
2016-09-09T03:16:06.121Z,954.26
2016-09-09T03:17:06.119Z,954.23
2016-09-09T03:18:06.104Z,954.22
2016-09-09T03:19:06.100Z,954.27
2016-09-09T03:20:06.097Z,954.19
2016-09-09T03:21:06.097Z,954.19
2016-09-09T03:22:06.097Z,954.19
2016-09-09T03:23:06.082Z,954.19
2016-09-09T03:24:06.077Z,954.24
2016-09-09T03:25:06.074Z,954.24
2016-09-09T03:26:06.067Z,954.25
2016-09-09T03:27:06.064Z,954.24
2016-09-09T03:28:06.056Z,954.28
2016-09-09T03:29:06.051Z,954.28
2016-09-09T03:30:06.047Z,954.27
2016-09-09T03:31:06.043Z,954.28
2016-09-09T03:32:06.043Z,954.3
2016-09-09T03:33:06.032Z,954.32
2016-09-09T03:34:06.028Z,954.33
2016-09-09T03:35:06.023Z,954.34
2016-09-09T03:36:06.017Z,954.36
2016-09-09T03:37:06.012Z,954.33
2016-09-09T03:38:06.009Z,954.38
2016-09-09T03:39:06.003Z,954.34
2016-09-09T03:40:06.002Z,954.31
2016-09-09T03:41:05.999Z,954.31
2016-09-09T03:42:05.991Z,954.31
2016-09-09T03:43:05.982Z,954.39
2016-09-09T03:44:05.978Z,954.37
2016-09-09T03:45:05.973Z,954.4
2016-09-09T03:46:05.972Z,954.41
2016-09-09T03:47:05.964Z,954.43
2016-09-09T03:48:05.958Z,954.43
2016-09-09T03:49:05.961Z,954.39
2016-09-09T03:50:05.953Z,954.45
2016-09-09T03:51:05.943Z,954.47
2016-09-09T03:52:05.941Z,954.42
2016-09-09T03:53:05.933Z,954.42
2016-09-09T03:54:05.929Z,954.45
2016-09-09T03:55:05.924Z,954.43
2016-09-09T03:56:05.919Z,954.46
2016-09-09T03:57:05.919Z,954.46
2016-09-09T03:58:05.913Z,954.48
2016-09-09T03:59:05.904Z,954.5
2016-09-09T04:00:05.900Z,954.52
2016-09-09T04:01:05.895Z,954.54
2016-09-09T04:02:05.890Z,954.56
2016-09-09T04:03:05.886Z,954.55
2016-09-09T04:04:05.887Z,954.57
2016-09-09T04:05:05.877Z,954.51
2016-09-09T04:06:05.871Z,954.55
2016-09-09T04:07:05.869Z,954.54
2016-09-09T04:08:05.860Z,954.56
2016-09-09T04:09:05.855Z,954.55
2016-09-09T04:10:05.852Z,954.59
2016-09-09T04:11:05.847Z,954.59
2016-09-09T04:12:05.841Z,954.6
2016-09-09T04:13:05.837Z,954.61
2016-09-09T04:14:05.832Z,954.67
2016-09-09T04:15:05.868Z,954.68
2016-09-09T04:16:05.822Z,954.67
2016-09-09T04:17:05.815Z,954.69
2016-09-09T04:18:05.810Z,954.67
2016-09-09T04:19:05.806Z,954.72
2016-09-09T04:20:05.805Z,954.71
2016-09-09T04:21:05.797Z,954.7
2016-09-09T04:22:05.805Z,954.75
2016-09-09T04:23:05.788Z,954.74
2016-09-09T04:24:05.781Z,954.73
2016-09-09T04:25:05.776Z,954.74
2016-09-09T04:26:05.770Z,954.71
2016-09-09T04:27:05.769Z,954.73
2016-09-09T04:28:05.761Z,954.7
2016-09-09T04:29:05.756Z,954.71
2016-09-09T04:30:05.754Z,954.78
2016-09-09T04:31:05.747Z,954.77
2016-09-09T04:32:05.742Z,954.78
2016-09-09T04:33:05.735Z,954.81
2016-09-09T04:34:05.738Z,954.81
2016-09-09T04:35:05.725Z,954.85
2016-09-09T04:36:05.721Z,954.87
2016-09-09T04:37:05.717Z,954.87
2016-09-09T04:38:05.712Z,954.87
2016-09-09T04:39:05.706Z,954.89
2016-09-09T04:40:05.698Z,954.9
2016-09-09T04:42:05.688Z,954.93
2016-09-09T04:43:05.683Z,954.94
2016-09-09T04:44:05.681Z,954.92
2016-09-09T04:45:05.673Z,954.95
2016-09-09T04:46:05.670Z,954.97
2016-09-09T04:47:05.667Z,954.95
2016-09-09T04:48:05.659Z,954.99
2016-09-09T04:49:05.652Z,954.99
2016-09-09T04:50:05.647Z,955
2016-09-09T04:51:05.643Z,955
2016-09-09T04:52:05.638Z,954.99
2016-09-09T04:53:05.634Z,954.99
2016-09-09T04:54:05.628Z,954.99
2016-09-09T04:55:05.627Z,954.99
2016-09-09T04:56:05.650Z,955
2016-09-09T04:57:05.614Z,955.02
2016-09-09T04:58:05.608Z,955.03
2016-09-09T04:59:05.602Z,955.05
2016-09-09T05:00:05.600Z,955.04
2016-09-09T05:01:05.596Z,955.02
2016-09-09T05:02:05.593Z,955.04
2016-09-09T05:03:05.584Z,955.02
2016-09-09T05:04:05.583Z,955.02
2016-09-09T05:05:05.579Z,955.06
2016-09-09T05:06:05.576Z,955.04
2016-09-09T05:07:05.567Z,955.1
2016-09-09T05:08:05.562Z,955.08
2016-09-09T05:09:05.554Z,955.07
2016-09-09T05:10:05.548Z,955.07
2016-09-09T05:11:05.546Z,955.08
2016-09-09T05:12:05.539Z,955.05
2016-09-09T05:13:05.538Z,955.04
2016-09-09T05:14:05.532Z,955.09
2016-09-09T05:15:05.526Z,955.05
2016-09-09T05:16:05.524Z,955.07
2016-09-09T05:17:05.517Z,955.08
2016-09-09T05:18:05.514Z,955.09
2016-09-09T05:19:05.508Z,955.12
2016-09-09T05:20:05.506Z,955.08
2016-09-09T05:21:05.500Z,955.1
2016-09-09T05:22:05.495Z,955.09
2016-09-09T05:23:05.489Z,955.09
2016-09-09T05:24:05.486Z,955.09
2016-09-09T05:25:05.482Z,955.11
2016-09-09T05:26:05.478Z,955.11
2016-09-09T05:27:05.474Z,955.11
2016-09-09T05:28:05.469Z,955.12
2016-09-09T05:29:05.466Z,955.13
2016-09-09T05:30:05.462Z,955.13
2016-09-09T05:31:05.457Z,955.13
2016-09-09T05:32:05.455Z,955.15
2016-09-09T05:33:05.450Z,955.17
2016-09-09T05:34:05.443Z,955.16
2016-09-09T05:35:05.440Z,955.2
2016-09-09T05:36:05.437Z,955.21
2016-09-09T05:37:05.437Z,955.18
2016-09-09T05:38:05.430Z,955.22
2016-09-09T05:39:05.427Z,955.2
2016-09-09T05:40:05.422Z,955.25
2016-09-09T05:41:05.416Z,955.26
2016-09-09T05:42:05.411Z,955.27
2016-09-09T05:43:05.410Z,955.29
2016-09-09T05:44:05.406Z,955.3
2016-09-09T05:45:05.401Z,955.33
2016-09-09T05:46:05.401Z,955.33
2016-09-09T05:47:05.393Z,955.31
2016-09-09T05:48:05.387Z,955.37
2016-09-09T05:49:05.388Z,955.36
2016-09-09T05:50:05.384Z,955.42
2016-09-09T05:51:05.378Z,955.4
2016-09-09T05:52:05.372Z,955.44
2016-09-09T05:53:05.370Z,955.46
2016-09-09T05:54:05.365Z,955.47
2016-09-09T05:55:05.361Z,955.47
2016-09-09T05:56:05.357Z,955.51
2016-09-09T05:57:05.353Z,955.49
2016-09-09T05:58:05.350Z,955.53
2016-09-09T05:59:05.347Z,955.5
2016-09-09T06:00:05.350Z,955.47
2016-09-09T06:01:05.343Z,955.49
2016-09-09T06:02:05.336Z,955.46
2016-09-09T06:03:05.335Z,955.52
2016-09-09T06:04:05.329Z,955.52
2016-09-09T06:05:05.326Z,955.51
2016-09-09T06:06:05.322Z,955.5
2016-09-09T06:07:05.317Z,955.51
2016-09-09T06:08:05.316Z,955.54
2016-09-09T06:09:05.314Z,955.52
2016-09-09T06:10:05.311Z,955.52
2016-09-09T06:11:05.305Z,955.55
2016-09-09T06:12:05.299Z,955.54
2016-09-09T06:13:05.297Z,955.5
2016-09-09T06:14:05.293Z,955.5
2016-09-09T06:15:05.292Z,955.51
2016-09-09T06:16:05.287Z,955.53
2016-09-09T06:17:05.283Z,955.52
2016-09-09T06:18:05.282Z,955.54
2016-09-09T06:19:05.280Z,955.54
2016-09-09T06:20:05.275Z,955.56
2016-09-09T06:21:05.271Z,955.54
2016-09-09T06:22:05.269Z,955.57
2016-09-09T06:23:05.262Z,955.58
2016-09-09T06:24:05.262Z,955.59
2016-09-09T06:25:05.277Z,955.61
2016-09-09T06:26:05.255Z,955.63
2016-09-09T06:27:05.252Z,955.61
2016-09-09T06:28:05.261Z,955.66
2016-09-09T06:29:05.248Z,955.66
2016-09-09T06:30:05.243Z,955.69
2016-09-09T06:31:05.240Z,955.68
2016-09-09T06:32:05.241Z,955.68
2016-09-09T06:33:05.238Z,955.66
2016-09-09T06:34:05.234Z,955.7
2016-09-09T06:35:05.231Z,955.69
2016-09-09T06:36:05.234Z,955.7
2016-09-09T06:37:05.223Z,955.71
2016-09-09T06:38:05.222Z,955.74
2016-09-09T06:39:05.235Z,955.73
2016-09-09T06:40:05.216Z,955.74
2016-09-09T06:41:05.215Z,955.78
2016-09-09T06:42:05.213Z,955.81
2016-09-09T06:43:05.209Z,955.8
2016-09-09T06:44:05.206Z,955.82
2016-09-09T06:45:05.212Z,955.83
2016-09-09T06:46:05.205Z,955.86
2016-09-09T06:47:05.199Z,955.87
2016-09-09T06:48:05.198Z,955.9
2016-09-09T06:49:05.196Z,955.87
2016-09-09T06:50:05.199Z,955.9
2016-09-09T06:51:05.196Z,955.9
2016-09-09T06:52:05.190Z,955.92
2016-09-09T06:53:05.191Z,955.91
2016-09-09T06:54:05.200Z,955.93
2016-09-09T06:55:05.183Z,955.92
2016-09-09T06:56:05.186Z,955.94
2016-09-09T06:57:05.181Z,955.9
2016-09-09T06:58:05.181Z,955.95
2016-09-09T06:59:05.177Z,955.93
2016-09-09T07:00:05.177Z,955.96
2016-09-09T07:01:05.176Z,955.98
2016-09-09T07:02:05.171Z,955.98
2016-09-09T07:03:05.170Z,955.98
2016-09-09T07:04:05.168Z,955.98
2016-09-09T07:05:05.168Z,955.97
2016-09-09T07:06:05.166Z,956.01
2016-09-09T07:07:05.165Z,956.01
2016-09-09T07:08:05.166Z,956.06
2016-09-09T07:09:05.163Z,956.06
2016-09-09T07:10:05.161Z,956.04
2016-09-09T07:11:05.160Z,956.04
2016-09-09T07:12:05.157Z,956.09
2016-09-09T07:13:05.156Z,956.07
2016-09-09T07:14:05.157Z,956.11
2016-09-09T07:15:05.158Z,956.12
2016-09-09T07:16:05.152Z,956.13
2016-09-09T07:17:05.151Z,956.14
2016-09-09T07:18:05.149Z,956.2
2016-09-09T07:19:05.148Z,956.23
2016-09-09T07:20:05.148Z,956.23
2016-09-09T07:21:05.198Z,956.22
2016-09-09T07:22:05.145Z,956.28
2016-09-09T07:23:05.145Z,956.26
2016-09-09T07:24:05.143Z,956.27
2016-09-09T07:25:05.141Z,956.27
2016-09-09T07:26:05.145Z,956.27
2016-09-09T07:27:05.144Z,956.3
2016-09-09T07:28:05.139Z,956.32
2016-09-09T07:29:05.138Z,956.34
2016-09-09T07:30:05.138Z,956.29
2016-09-09T07:31:05.136Z,956.34
2016-09-09T07:32:05.137Z,956.35
2016-09-09T07:33:05.136Z,956.37
2016-09-09T07:34:05.140Z,956.39
2016-09-09T07:35:05.142Z,956.4
2016-09-09T07:36:05.130Z,956.39
2016-09-09T07:37:05.131Z,956.39
2016-09-09T07:38:05.129Z,956.41
2016-09-09T07:39:05.129Z,956.43
2016-09-09T07:40:05.126Z,956.41
2016-09-09T07:41:05.133Z,956.42
2016-09-09T07:42:05.125Z,956.44
2016-09-09T07:43:05.124Z,956.43
2016-09-09T07:44:05.124Z,956.45
2016-09-09T07:45:05.125Z,956.47
2016-09-09T07:46:05.142Z,956.47
2016-09-09T07:47:05.123Z,956.49
2016-09-09T07:48:05.132Z,956.52
2016-09-09T07:49:05.120Z,956.51
2016-09-09T07:50:05.118Z,956.5
2016-09-09T07:51:05.117Z,956.55
2016-09-09T07:52:05.119Z,956.56
2016-09-09T07:53:05.116Z,956.54
2016-09-09T07:54:05.116Z,956.5
2016-09-09T07:55:05.114Z,956.51
2016-09-09T07:56:05.125Z,956.52
2016-09-09T07:57:05.136Z,956.55
2016-09-09T07:58:05.112Z,956.55
2016-09-09T07:59:05.113Z,956.57
2016-09-09T08:00:05.135Z,956.56
2016-09-09T08:01:05.109Z,956.58
2016-09-09T08:02:05.112Z,956.61
2016-09-09T08:03:05.109Z,956.57
2016-09-09T08:04:05.108Z,956.57
2016-09-09T08:05:05.109Z,956.58
2016-09-09T08:06:05.315Z,956.61
2016-09-09T08:07:05.116Z,956.61
2016-09-09T08:08:05.107Z,956.59
2016-09-09T08:09:05.108Z,956.59
2016-09-09T08:10:05.110Z,956.64
2016-09-09T08:11:05.109Z,956.62
2016-09-09T08:12:05.105Z,956.65
2016-09-09T08:13:05.107Z,956.66
2016-09-09T08:14:05.106Z,956.61
2016-09-09T08:15:05.106Z,956.64
2016-09-09T08:16:05.104Z,956.62
2016-09-09T08:17:05.136Z,956.55
2016-09-09T08:18:05.106Z,956.6
2016-09-09T08:19:05.104Z,956.63
2016-09-09T08:20:05.109Z,956.6
2016-09-09T08:21:05.110Z,956.66
2016-09-09T08:22:05.105Z,956.69
2016-09-09T08:23:05.103Z,956.61
2016-09-09T08:24:05.107Z,956.65
2016-09-09T08:25:05.112Z,956.66
2016-09-09T08:26:05.106Z,956.66
2016-09-09T08:27:05.104Z,956.67
2016-09-09T08:28:05.105Z,956.68
2016-09-09T08:29:05.105Z,956.68
2016-09-09T08:30:05.107Z,956.74
2016-09-09T08:31:05.106Z,956.73
2016-09-09T08:32:05.104Z,956.72
2016-09-09T08:33:05.104Z,956.74
2016-09-09T08:34:05.107Z,956.71
2016-09-09T08:35:05.108Z,956.73
2016-09-09T08:36:05.107Z,956.69
2016-09-09T08:37:05.106Z,956.68
2016-09-09T08:38:05.108Z,956.7
2016-09-09T08:39:05.107Z,956.69
2016-09-09T08:40:05.110Z,956.67
2016-09-09T08:41:05.108Z,956.71
2016-09-09T08:42:05.109Z,956.67
2016-09-09T08:43:05.116Z,956.67
2016-09-09T08:44:05.109Z,956.71
2016-09-09T08:45:05.570Z,956.72
2016-09-09T08:46:05.118Z,956.71
2016-09-09T08:47:05.156Z,956.71
2016-09-09T08:48:05.535Z,956.72
2016-09-09T08:49:05.129Z,956.73
2016-09-09T08:50:05.118Z,956.74
2016-09-09T08:51:05.113Z,956.75
2016-09-09T08:52:05.114Z,956.77
2016-09-09T08:53:05.118Z,956.74
2016-09-09T08:54:05.119Z,956.8
2016-09-09T08:55:05.119Z,956.8
2016-09-09T08:56:05.117Z,956.76
2016-09-09T08:57:05.118Z,956.77
2016-09-09T08:58:05.119Z,956.78
2016-09-09T08:59:05.120Z,956.74
2016-09-09T09:00:05.120Z,956.77
2016-09-09T09:01:05.121Z,956.78
2016-09-09T09:02:05.120Z,956.81
2016-09-09T09:03:05.120Z,956.75
2016-09-09T09:04:05.123Z,956.78
2016-09-09T09:05:05.124Z,956.75
2016-09-09T09:06:05.124Z,956.76
2016-09-09T09:07:05.124Z,956.76
2016-09-09T09:08:05.128Z,956.77
2016-09-09T09:09:05.129Z,956.78
2016-09-09T09:10:05.125Z,956.79
2016-09-09T09:11:05.127Z,956.79
2016-09-09T09:12:05.128Z,956.77
2016-09-09T09:13:05.128Z,956.79
2016-09-09T09:14:05.129Z,956.79
2016-09-09T09:15:05.131Z,956.8
2016-09-09T09:16:05.131Z,956.79
2016-09-09T09:17:05.133Z,956.79
2016-09-09T09:18:05.345Z,956.82
2016-09-09T09:19:05.134Z,956.81
2016-09-09T09:20:05.138Z,956.84
2016-09-09T09:21:05.137Z,956.8
2016-09-09T09:22:05.136Z,956.84
2016-09-09T09:23:05.143Z,956.84
2016-09-09T09:24:05.165Z,956.85
2016-09-09T09:25:05.141Z,956.82
2016-09-09T09:26:05.141Z,956.82
2016-09-09T09:27:05.143Z,956.81
2016-09-09T09:28:05.142Z,956.8
2016-09-09T09:29:05.143Z,956.83
2016-09-09T09:30:05.146Z,956.78
2016-09-09T09:31:05.145Z,956.78
2016-09-09T09:32:05.144Z,956.83
2016-09-09T09:33:05.146Z,956.85
2016-09-09T09:34:05.145Z,956.83
2016-09-09T09:35:05.150Z,956.84
2016-09-09T09:36:05.152Z,956.84
2016-09-09T09:37:05.151Z,956.82
2016-09-09T09:38:05.150Z,956.86
2016-09-09T09:39:05.159Z,956.85
2016-09-09T09:40:05.327Z,956.82
2016-09-09T09:41:05.156Z,956.87
2016-09-09T09:42:05.155Z,956.86
2016-09-09T09:43:05.153Z,956.84
2016-09-09T09:44:05.155Z,956.79
2016-09-09T09:45:05.157Z,956.8
2016-09-09T09:46:05.157Z,956.81
2016-09-09T09:47:05.158Z,956.83
2016-09-09T09:48:05.160Z,956.85
2016-09-09T09:49:05.160Z,956.85
2016-09-09T09:50:05.159Z,956.81
2016-09-09T09:51:05.164Z,956.83
2016-09-09T09:52:05.162Z,956.85
2016-09-09T09:53:05.163Z,956.85
2016-09-09T09:54:05.163Z,956.83
2016-09-09T09:55:05.165Z,956.81
2016-09-09T09:56:05.170Z,956.81
2016-09-09T09:57:05.167Z,956.84
2016-09-09T09:58:05.175Z,956.81
2016-09-09T09:59:05.167Z,956.77
2016-09-09T10:00:05.170Z,956.79
2016-09-09T10:01:05.169Z,956.8
2016-09-09T10:02:05.171Z,956.8
2016-09-09T10:03:05.175Z,956.75
2016-09-09T10:04:05.176Z,956.78
2016-09-09T10:05:05.173Z,956.79
2016-09-09T10:06:05.175Z,956.82
2016-09-09T10:07:05.175Z,956.78
2016-09-09T10:08:05.180Z,956.76
2016-09-09T10:09:05.179Z,956.77
2016-09-09T10:10:05.180Z,956.74
2016-09-09T10:11:05.180Z,956.78
2016-09-09T10:12:05.180Z,956.79
2016-09-09T10:13:05.185Z,956.78
2016-09-09T10:14:05.185Z,956.75
2016-09-09T10:15:05.221Z,956.75
2016-09-09T10:16:05.205Z,956.69
2016-09-09T10:17:05.187Z,956.73
2016-09-09T10:18:05.189Z,956.76
2016-09-09T10:19:05.195Z,956.73
2016-09-09T10:20:05.199Z,956.73
2016-09-09T10:21:05.192Z,956.74
2016-09-09T10:22:05.194Z,956.74
2016-09-09T10:23:05.194Z,956.73
2016-09-09T10:24:05.209Z,956.73
2016-09-09T10:25:05.208Z,956.7
2016-09-09T10:26:05.194Z,956.67
2016-09-09T10:27:05.199Z,956.65
2016-09-09T10:28:05.199Z,956.67
2016-09-09T10:29:05.202Z,956.67
2016-09-09T10:30:05.202Z,956.61
2016-09-09T10:31:05.214Z,956.63
2016-09-09T10:32:05.205Z,956.63
2016-09-09T10:33:05.204Z,956.62
2016-09-09T10:34:05.205Z,956.62
2016-09-09T10:35:05.206Z,956.59
2016-09-09T10:36:05.207Z,956.62
2016-09-09T10:37:05.207Z,956.63
2016-09-09T10:38:05.206Z,956.63
2016-09-09T10:39:05.210Z,956.58
2016-09-09T10:40:05.215Z,956.59
2016-09-09T10:41:05.211Z,956.59
2016-09-09T10:42:05.213Z,956.62
2016-09-09T10:43:05.214Z,956.6
2016-09-09T10:44:05.216Z,956.58
2016-09-09T10:45:05.217Z,956.62
2016-09-09T10:46:05.217Z,956.6
2016-09-09T10:47:05.221Z,956.62
2016-09-09T10:48:05.218Z,956.56
2016-09-09T10:49:05.234Z,956.59
2016-09-09T10:50:05.222Z,956.57
2016-09-09T10:51:05.222Z,956.55
2016-09-09T10:52:05.222Z,956.59
2016-09-09T10:53:05.225Z,956.59
2016-09-09T10:54:05.225Z,956.62
2016-09-09T10:55:05.232Z,956.61
2016-09-09T10:56:05.227Z,956.62
2016-09-09T10:57:05.233Z,956.59
2016-09-09T10:58:05.232Z,956.61
2016-09-09T10:59:05.231Z,956.61
2016-09-09T11:00:05.238Z,956.6
2016-09-09T11:01:05.236Z,956.6
2016-09-09T11:02:05.239Z,956.64
2016-09-09T11:03:05.249Z,956.62
2016-09-09T11:04:05.237Z,956.63
2016-09-09T11:05:05.239Z,956.64
2016-09-09T11:06:05.243Z,956.64
2016-09-09T11:07:05.242Z,956.63
2016-09-09T11:08:05.244Z,956.61
2016-09-09T11:09:05.244Z,956.59
2016-09-09T11:10:05.243Z,956.61
2016-09-09T11:11:05.244Z,956.63
2016-09-09T11:12:05.245Z,956.67
2016-09-09T11:13:05.248Z,956.65
2016-09-09T11:14:05.249Z,956.65
2016-09-09T11:15:05.248Z,956.65
2016-09-09T11:16:05.251Z,956.63
2016-09-09T11:17:05.251Z,956.62
2016-09-09T11:18:05.261Z,956.64
2016-09-09T11:19:05.260Z,956.67
2016-09-09T11:20:05.256Z,956.65
2016-09-09T11:21:05.257Z,956.67
2016-09-09T11:22:05.259Z,956.68
2016-09-09T11:23:05.264Z,956.69
2016-09-09T11:24:05.359Z,956.68
2016-09-09T11:25:05.268Z,956.65
2016-09-09T11:26:05.278Z,956.7
2016-09-09T11:27:05.561Z,956.65
2016-09-09T11:28:05.271Z,956.72
2016-09-09T11:29:05.267Z,956.71
2016-09-09T11:30:05.269Z,956.67
2016-09-09T11:31:05.272Z,956.66
2016-09-09T11:32:05.271Z,956.72
2016-09-09T11:33:05.275Z,956.69
2016-09-09T11:34:05.275Z,956.7
2016-09-09T11:35:05.277Z,956.69
2016-09-09T11:36:05.281Z,956.65
2016-09-09T11:37:05.285Z,956.7
2016-09-09T11:38:05.280Z,956.71
2016-09-09T11:39:05.281Z,956.72
2016-09-09T11:40:05.282Z,956.64
2016-09-09T11:41:05.285Z,956.71
2016-09-09T11:42:05.286Z,956.7
2016-09-09T11:43:05.308Z,956.68
2016-09-09T11:44:05.290Z,956.68
2016-09-09T11:45:05.291Z,956.69
2016-09-09T11:46:05.292Z,956.71
2016-09-09T11:47:05.292Z,956.7
2016-09-09T11:48:05.297Z,956.73
2016-09-09T11:49:05.296Z,956.7
2016-09-09T11:50:05.298Z,956.7
2016-09-09T11:51:05.300Z,956.7
2016-09-09T11:52:05.304Z,956.72
2016-09-09T11:53:05.310Z,956.71
2016-09-09T11:54:05.313Z,956.7
2016-09-09T11:55:05.308Z,956.72
2016-09-09T11:56:05.308Z,956.74
2016-09-09T11:57:05.319Z,956.69
2016-09-09T11:58:05.310Z,956.71
2016-09-09T11:59:05.325Z,956.71
2016-09-09T12:00:05.319Z,956.76
2016-09-09T12:01:05.321Z,956.75
2016-09-09T12:02:05.321Z,956.72
2016-09-09T12:03:05.320Z,956.73
2016-09-09T12:04:05.323Z,956.75
2016-09-09T12:05:05.327Z,956.67
2016-09-09T12:06:05.327Z,956.7
2016-09-09T12:07:05.345Z,956.72
2016-09-09T12:08:05.333Z,956.71
2016-09-09T12:09:05.332Z,956.72
2016-09-09T12:10:05.334Z,956.72
2016-09-09T12:11:05.337Z,956.72
2016-09-09T12:12:05.343Z,956.73
2016-09-09T12:13:05.342Z,956.73
2016-09-09T12:14:05.345Z,956.7
2016-09-09T12:15:05.344Z,956.72
2016-09-09T12:16:05.365Z,956.72
2016-09-09T12:17:05.347Z,956.71
2016-09-09T12:18:05.353Z,956.63
2016-09-09T12:19:05.352Z,956.69
2016-09-09T12:20:05.357Z,956.64
2016-09-09T12:21:05.362Z,956.67
2016-09-09T12:22:05.405Z,956.66
2016-09-09T12:23:05.360Z,956.64
2016-09-09T12:24:05.363Z,956.67
2016-09-09T12:25:05.366Z,956.67
2016-09-09T12:26:05.372Z,956.69
2016-09-09T12:27:05.368Z,956.72
2016-09-09T12:28:05.371Z,956.69
2016-09-09T12:29:05.376Z,956.69
2016-09-09T12:30:05.382Z,956.67
2016-09-09T12:31:05.380Z,956.71
2016-09-09T12:32:05.383Z,956.66